sensor_id;sensor_type;location;lat;lon;timestamp;temperature;humidity
48416;DHT22;34227;51.840;4.146;2022-10-16T00:00:41;14.40;95.30
48416;DHT22;34227;51.840;4.146;2022-10-16T00:03:07;14.40;95.30
48416;DHT22;34227;51.840;4.146;2022-10-16T00:05:37;14.40;95.30
48416;DHT22;34227;51.840;4.146;2022-10-16T00:08:02;14.40;95.30
48416;DHT22;34227;51.840;4.146;2022-10-16T00:10:28;14.40;95.30
48416;DHT22;34227;51.840;4.146;2022-10-16T00:12:54;14.40;95.30
48416;DHT22;34227;51.840;4.146;2022-10-16T00:15:19;14.40;95.20
48416;DHT22;34227;51.840;4.146;2022-10-16T00:17:45;14.50;95.20
48416;DHT22;34227;51.840;4.146;2022-10-16T00:20:10;14.40;95.30
48416;DHT22;34227;51.840;4.146;2022-10-16T00:22:36;14.40;95.20
48416;DHT22;34227;51.840;4.146;2022-10-16T00:25:02;14.40;95.20
48416;DHT22;34227;51.840;4.146;2022-10-16T00:27:27;14.40;95.30
48416;DHT22;34227;51.840;4.146;2022-10-16T00:29:53;14.40;95.20
48416;DHT22;34227;51.840;4.146;2022-10-16T00:32:19;14.50;95.20
48416;DHT22;34227;51.840;4.146;2022-10-16T00:34:44;14.40;95.30
48416;DHT22;34227;51.840;4.146;2022-10-16T00:37:10;14.50;95.30
48416;DHT22;34227;51.840;4.146;2022-10-16T00:39:36;14.40;95.20
48416;DHT22;34227;51.840;4.146;2022-10-16T00:42:02;14.40;95.20
48416;DHT22;34227;51.840;4.146;2022-10-16T00:47:13;14.40;95.30
48416;DHT22;34227;51.840;4.146;2022-10-16T00:49:40;14.40;95.30
48416;DHT22;34227;51.840;4.146;2022-10-16T00:52:06;14.40;95.30
48416;DHT22;34227;51.840;4.146;2022-10-16T00:54:32;14.40;95.30
48416;DHT22;34227;51.840;4.146;2022-10-16T00:57:01;14.40;95.30
48416;DHT22;34227;51.840;4.146;2022-10-16T00:59:29;14.40;95.30
48416;DHT22;34227;51.840;4.146;2022-10-16T01:01:56;14.40;95.30
48416;DHT22;34227;51.840;4.146;2022-10-16T01:04:23;14.40;95.40
48416;DHT22;34227;51.840;4.146;2022-10-16T01:17:19;14.30;95.40
48416;DHT22;34227;51.840;4.146;2022-10-16T01:20:01;14.30;95.50
48416;DHT22;34227;51.840;4.146;2022-10-16T01:22:33;14.30;95.40
48416;DHT22;34227;51.840;4.146;2022-10-16T01:24:59;14.30;95.50
48416;DHT22;34227;51.840;4.146;2022-10-16T01:27:29;14.30;95.50
48416;DHT22;34227;51.840;4.146;2022-10-16T01:34:53;14.20;95.60
48416;DHT22;34227;51.840;4.146;2022-10-16T01:37:43;14.20;95.60
48416;DHT22;34227;51.840;4.146;2022-10-16T01:40:09;14.20;95.60
48416;DHT22;34227;51.840;4.146;2022-10-16T01:42:36;14.20;95.70
48416;DHT22;34227;51.840;4.146;2022-10-16T01:45:03;14.20;95.80
48416;DHT22;34227;51.840;4.146;2022-10-16T01:47:31;14.20;95.70
48416;DHT22;34227;51.840;4.146;2022-10-16T01:49:57;14.20;95.80
48416;DHT22;34227;51.840;4.146;2022-10-16T01:52:25;14.20;95.80
48416;DHT22;34227;51.840;4.146;2022-10-16T01:54:52;14.10;95.80
48416;DHT22;34227;51.840;4.146;2022-10-16T01:57:19;14.10;96.10
48416;DHT22;34227;51.840;4.146;2022-10-16T01:59:46;14.10;95.70
48416;DHT22;34227;51.840;4.146;2022-10-16T02:02:13;14.10;95.80
48416;DHT22;34227;51.840;4.146;2022-10-16T02:04:42;14.10;95.80
48416;DHT22;34227;51.840;4.146;2022-10-16T02:07:09;14.10;96.20
48416;DHT22;34227;51.840;4.146;2022-10-16T02:09:38;14.10;95.90
48416;DHT22;34227;51.840;4.146;2022-10-16T02:14:48;14.10;95.80
48416;DHT22;34227;51.840;4.146;2022-10-16T02:17:15;14.10;95.90
48416;DHT22;34227;51.840;4.146;2022-10-16T02:19:41;14.10;95.90
48416;DHT22;34227;51.840;4.146;2022-10-16T02:22:08;14.10;96.00
48416;DHT22;34227;51.840;4.146;2022-10-16T02:24:38;14.10;96.00
48416;DHT22;34227;51.840;4.146;2022-10-16T02:27:11;14.10;95.90
48416;DHT22;34227;51.840;4.146;2022-10-16T02:29:39;14.10;95.90
48416;DHT22;34227;51.840;4.146;2022-10-16T02:32:05;14.10;96.00
48416;DHT22;34227;51.840;4.146;2022-10-16T02:34:33;14.10;95.90
48416;DHT22;34227;51.840;4.146;2022-10-16T02:36:59;14.10;95.90
48416;DHT22;34227;51.840;4.146;2022-10-16T02:39:26;14.10;96.00
48416;DHT22;34227;51.840;4.146;2022-10-16T02:41:52;14.10;95.90
48416;DHT22;34227;51.840;4.146;2022-10-16T02:44:18;14.10;95.90
48416;DHT22;34227;51.840;4.146;2022-10-16T02:46:43;14.10;95.90
48416;DHT22;34227;51.840;4.146;2022-10-16T02:49:09;14.10;96.00
48416;DHT22;34227;51.840;4.146;2022-10-16T02:51:34;14.10;95.90
48416;DHT22;34227;51.840;4.146;2022-10-16T02:54:01;14.10;96.00
48416;DHT22;34227;51.840;4.146;2022-10-16T02:56:27;14.00;95.80
48416;DHT22;34227;51.840;4.146;2022-10-16T02:58:52;14.10;95.90
48416;DHT22;34227;51.840;4.146;2022-10-16T03:01:18;14.10;95.90
48416;DHT22;34227;51.840;4.146;2022-10-16T03:03:43;14.00;95.90
48416;DHT22;34227;51.840;4.146;2022-10-16T03:06:09;14.00;96.00
48416;DHT22;34227;51.840;4.146;2022-10-16T03:08:35;14.00;95.90
48416;DHT22;34227;51.840;4.146;2022-10-16T03:11:00;14.00;96.00
48416;DHT22;34227;51.840;4.146;2022-10-16T03:13:26;14.00;96.00
48416;DHT22;34227;51.840;4.146;2022-10-16T03:15:51;14.00;96.00
48416;DHT22;34227;51.840;4.146;2022-10-16T03:18:17;13.90;96.30
48416;DHT22;34227;51.840;4.146;2022-10-16T03:20:43;13.90;96.00
48416;DHT22;34227;51.840;4.146;2022-10-16T03:23:08;13.90;96.00
48416;DHT22;34227;51.840;4.146;2022-10-16T03:25:34;13.90;96.00
48416;DHT22;34227;51.840;4.146;2022-10-16T03:28:00;13.90;96.00
48416;DHT22;34227;51.840;4.146;2022-10-16T03:30:25;13.90;96.10
48416;DHT22;34227;51.840;4.146;2022-10-16T03:32:51;13.90;96.10
48416;DHT22;34227;51.840;4.146;2022-10-16T03:35:20;13.90;96.20
48416;DHT22;34227;51.840;4.146;2022-10-16T03:37:45;13.80;96.10
48416;DHT22;34227;51.840;4.146;2022-10-16T03:40:11;13.80;96.10
48416;DHT22;34227;51.840;4.146;2022-10-16T03:42:37;13.80;96.10
48416;DHT22;34227;51.840;4.146;2022-10-16T03:45:03;13.80;96.20
48416;DHT22;34227;51.840;4.146;2022-10-16T03:47:28;13.80;96.20
48416;DHT22;34227;51.840;4.146;2022-10-16T03:49:54;13.70;96.10
48416;DHT22;34227;51.840;4.146;2022-10-16T03:52:19;13.80;96.10
48416;DHT22;34227;51.840;4.146;2022-10-16T03:54:45;13.70;96.20
48416;DHT22;34227;51.840;4.146;2022-10-16T03:57:10;13.70;96.20
48416;DHT22;34227;51.840;4.146;2022-10-16T03:59:36;13.70;96.20
48416;DHT22;34227;51.840;4.146;2022-10-16T04:02:01;13.70;96.20
48416;DHT22;34227;51.840;4.146;2022-10-16T04:04:27;13.70;96.20
48416;DHT22;34227;51.840;4.146;2022-10-16T04:06:53;13.70;96.30
48416;DHT22;34227;51.840;4.146;2022-10-16T04:09:18;13.70;96.30
48416;DHT22;34227;51.840;4.146;2022-10-16T04:11:44;13.70;96.30
48416;DHT22;34227;51.840;4.146;2022-10-16T04:14:09;13.60;96.20
48416;DHT22;34227;51.840;4.146;2022-10-16T04:16:38;13.60;96.20
48416;DHT22;34227;51.840;4.146;2022-10-16T04:19:04;13.60;96.30
48416;DHT22;34227;51.840;4.146;2022-10-16T04:21:29;13.60;96.30
48416;DHT22;34227;51.840;4.146;2022-10-16T04:23:55;13.60;96.30
48416;DHT22;34227;51.840;4.146;2022-10-16T04:26:20;13.60;96.30
48416;DHT22;34227;51.840;4.146;2022-10-16T04:28:46;13.60;96.40
48416;DHT22;34227;51.840;4.146;2022-10-16T04:31:11;13.60;96.40
48416;DHT22;34227;51.840;4.146;2022-10-16T04:33:37;13.60;96.40
48416;DHT22;34227;51.840;4.146;2022-10-16T04:36:02;13.60;96.40
48416;DHT22;34227;51.840;4.146;2022-10-16T04:38:28;13.60;96.30
48416;DHT22;34227;51.840;4.146;2022-10-16T04:40:54;13.60;96.40
48416;DHT22;34227;51.840;4.146;2022-10-16T04:43:20;13.50;96.50
48416;DHT22;34227;51.840;4.146;2022-10-16T04:45:46;13.60;96.40
48416;DHT22;34227;51.840;4.146;2022-10-16T04:48:11;13.60;96.40
48416;DHT22;34227;51.840;4.146;2022-10-16T04:50:37;13.60;96.30
48416;DHT22;34227;51.840;4.146;2022-10-16T04:53:02;13.60;96.40
48416;DHT22;34227;51.840;4.146;2022-10-16T04:55:28;13.60;96.40
48416;DHT22;34227;51.840;4.146;2022-10-16T04:57:54;13.60;96.40
48416;DHT22;34227;51.840;4.146;2022-10-16T05:00:19;13.60;96.40
48416;DHT22;34227;51.840;4.146;2022-10-16T05:02:45;13.60;96.50
48416;DHT22;34227;51.840;4.146;2022-10-16T05:05:10;13.60;96.50
48416;DHT22;34227;51.840;4.146;2022-10-16T05:07:36;13.60;96.50
48416;DHT22;34227;51.840;4.146;2022-10-16T05:10:02;13.60;96.50
48416;DHT22;34227;51.840;4.146;2022-10-16T05:12:27;13.60;96.40
48416;DHT22;34227;51.840;4.146;2022-10-16T05:14:53;13.60;96.50
48416;DHT22;34227;51.840;4.146;2022-10-16T05:17:24;13.60;96.50
48416;DHT22;34227;51.840;4.146;2022-10-16T05:19:50;13.60;96.50
48416;DHT22;34227;51.840;4.146;2022-10-16T05:22:15;13.60;96.50
48416;DHT22;34227;51.840;4.146;2022-10-16T05:24:41;13.60;96.50
48416;DHT22;34227;51.840;4.146;2022-10-16T05:27:06;13.70;96.50
48416;DHT22;34227;51.840;4.146;2022-10-16T05:29:32;13.60;96.50
48416;DHT22;34227;51.840;4.146;2022-10-16T05:31:57;13.70;96.40
48416;DHT22;34227;51.840;4.146;2022-10-16T05:34:23;13.70;96.50
48416;DHT22;34227;51.840;4.146;2022-10-16T05:36:48;13.70;96.50
48416;DHT22;34227;51.840;4.146;2022-10-16T05:39:14;13.70;96.40
48416;DHT22;34227;51.840;4.146;2022-10-16T05:41:40;13.70;96.40
48416;DHT22;34227;51.840;4.146;2022-10-16T05:44:06;13.70;96.40
48416;DHT22;34227;51.840;4.146;2022-10-16T05:46:32;13.70;96.40
48416;DHT22;34227;51.840;4.146;2022-10-16T05:48:57;13.70;96.50
48416;DHT22;34227;51.840;4.146;2022-10-16T05:51:23;13.70;96.80
48416;DHT22;34227;51.840;4.146;2022-10-16T05:53:49;13.70;96.40
48416;DHT22;34227;51.840;4.146;2022-10-16T05:56:15;13.70;96.40
48416;DHT22;34227;51.840;4.146;2022-10-16T05:58:40;13.70;96.40
48416;DHT22;34227;51.840;4.146;2022-10-16T06:01:11;13.70;96.40
48416;DHT22;34227;51.840;4.146;2022-10-16T06:03:37;13.70;96.30
48416;DHT22;34227;51.840;4.146;2022-10-16T06:06:12;13.70;96.30
48416;DHT22;34227;51.840;4.146;2022-10-16T06:08:39;13.70;96.70
48416;DHT22;34227;51.840;4.146;2022-10-16T06:11:05;13.70;96.30
48416;DHT22;34227;51.840;4.146;2022-10-16T06:13:31;13.70;96.40
48416;DHT22;34227;51.840;4.146;2022-10-16T06:15:57;13.70;96.30
48416;DHT22;34227;51.840;4.146;2022-10-16T06:18:23;13.70;96.50
48416;DHT22;34227;51.840;4.146;2022-10-16T06:20:49;13.70;96.40
48416;DHT22;34227;51.840;4.146;2022-10-16T06:23:14;13.70;96.50
48416;DHT22;34227;51.840;4.146;2022-10-16T06:25:40;13.70;96.40
48416;DHT22;34227;51.840;4.146;2022-10-16T06:28:05;13.70;96.40
48416;DHT22;34227;51.840;4.146;2022-10-16T06:30:31;13.70;96.40
48416;DHT22;34227;51.840;4.146;2022-10-16T06:32:57;13.70;96.30
48416;DHT22;34227;51.840;4.146;2022-10-16T06:35:22;13.70;96.30
48416;DHT22;34227;51.840;4.146;2022-10-16T06:37:49;13.70;96.40
48416;DHT22;34227;51.840;4.146;2022-10-16T06:40:14;13.70;96.30
48416;DHT22;34227;51.840;4.146;2022-10-16T06:42:40;13.70;96.30
48416;DHT22;34227;51.840;4.146;2022-10-16T06:45:06;13.70;96.30
48416;DHT22;34227;51.840;4.146;2022-10-16T06:47:34;13.70;96.40
48416;DHT22;34227;51.840;4.146;2022-10-16T06:50:00;13.70;96.40
48416;DHT22;34227;51.840;4.146;2022-10-16T06:52:27;13.70;96.40
48416;DHT22;34227;51.840;4.146;2022-10-16T06:54:53;13.70;96.40
48416;DHT22;34227;51.840;4.146;2022-10-16T06:57:22;13.70;96.40
48416;DHT22;34227;51.840;4.146;2022-10-16T06:59:47;13.70;96.40
48416;DHT22;34227;51.840;4.146;2022-10-16T07:02:13;13.60;96.40
48416;DHT22;34227;51.840;4.146;2022-10-16T07:04:38;13.60;96.40
48416;DHT22;34227;51.840;4.146;2022-10-16T07:07:04;13.60;96.40
48416;DHT22;34227;51.840;4.146;2022-10-16T07:09:29;13.60;96.40
48416;DHT22;34227;51.840;4.146;2022-10-16T07:11:58;13.60;96.60
48416;DHT22;34227;51.840;4.146;2022-10-16T07:14:24;13.60;96.50
48416;DHT22;34227;51.840;4.146;2022-10-16T07:16:52;13.70;96.60
48416;DHT22;34227;51.840;4.146;2022-10-16T07:19:18;13.70;96.60
48416;DHT22;34227;51.840;4.146;2022-10-16T07:21:44;13.70;96.50
48416;DHT22;34227;51.840;4.146;2022-10-16T07:24:14;13.70;96.40
48416;DHT22;34227;51.840;4.146;2022-10-16T07:26:40;13.80;96.60
48416;DHT22;34227;51.840;4.146;2022-10-16T07:29:07;13.80;96.70
48416;DHT22;34227;51.840;4.146;2022-10-16T07:31:34;13.90;96.90
48416;DHT22;34227;51.840;4.146;2022-10-16T07:34:00;13.90;97.00
48416;DHT22;34227;51.840;4.146;2022-10-16T07:36:26;14.00;97.10
48416;DHT22;34227;51.840;4.146;2022-10-16T07:38:51;14.00;97.20
48416;DHT22;34227;51.840;4.146;2022-10-16T07:41:18;14.10;97.20
48416;DHT22;34227;51.840;4.146;2022-10-16T07:43:48;14.20;97.50
48416;DHT22;34227;51.840;4.146;2022-10-16T07:46:14;14.50;97.90
48416;DHT22;34227;51.840;4.146;2022-10-16T07:48:39;14.50;98.10
48416;DHT22;34227;51.840;4.146;2022-10-16T07:51:06;14.70;98.30
48416;DHT22;34227;51.840;4.146;2022-10-16T07:53:32;14.90;98.50
48416;DHT22;34227;51.840;4.146;2022-10-16T07:55:58;15.30;98.40
48416;DHT22;34227;51.840;4.146;2022-10-16T07:58:24;15.60;98.20
48416;DHT22;34227;51.840;4.146;2022-10-16T08:00:53;15.90;98.00
48416;DHT22;34227;51.840;4.146;2022-10-16T08:03:18;16.20;97.50
48416;DHT22;34227;51.840;4.146;2022-10-16T08:05:44;16.60;97.00
48416;DHT22;34227;51.840;4.146;2022-10-16T08:08:13;16.90;96.80
48416;DHT22;34227;51.840;4.146;2022-10-16T08:10:39;17.20;96.40
48416;DHT22;34227;51.840;4.146;2022-10-16T08:13:04;17.50;96.10
48416;DHT22;34227;51.840;4.146;2022-10-16T08:15:30;17.80;95.80
48416;DHT22;34227;51.840;4.146;2022-10-16T08:17:56;18.10;95.40
48416;DHT22;34227;51.840;4.146;2022-10-16T08:20:23;18.40;94.90
48416;DHT22;34227;51.840;4.146;2022-10-16T08:22:49;18.70;94.60
48416;DHT22;34227;51.840;4.146;2022-10-16T08:25:15;19.00;94.30
48416;DHT22;34227;51.840;4.146;2022-10-16T08:27:40;19.20;93.90
48416;DHT22;34227;51.840;4.146;2022-10-16T08:30:06;19.50;93.60
48416;DHT22;34227;51.840;4.146;2022-10-16T08:32:32;19.80;93.30
48416;DHT22;34227;51.840;4.146;2022-10-16T08:34:57;20.10;92.90
48416;DHT22;34227;51.840;4.146;2022-10-16T08:37:23;20.40;92.50
48416;DHT22;34227;51.840;4.146;2022-10-16T08:39:49;20.70;92.30
48416;DHT22;34227;51.840;4.146;2022-10-16T08:47:34;21.60;91.10
48416;DHT22;34227;51.840;4.146;2022-10-16T08:50:02;21.80;90.60
48416;DHT22;34227;51.840;4.146;2022-10-16T08:52:34;22.10;90.30
48416;DHT22;34227;51.840;4.146;2022-10-16T08:55:04;22.40;90.10
48416;DHT22;34227;51.840;4.146;2022-10-16T08:57:29;22.70;89.60
48416;DHT22;34227;51.840;4.146;2022-10-16T08:59:57;22.90;88.50
48416;DHT22;34227;51.840;4.146;2022-10-16T09:02:35;23.20;87.90
48416;DHT22;34227;51.840;4.146;2022-10-16T09:10:22;23.90;85.10
48416;DHT22;34227;51.840;4.146;2022-10-16T09:13:26;24.10;84.60
48416;DHT22;34227;51.840;4.146;2022-10-16T09:15:53;24.30;83.00
48416;DHT22;34227;51.840;4.146;2022-10-16T09:18:26;24.50;82.50
48416;DHT22;34227;51.840;4.146;2022-10-16T09:23:50;24.80;80.80
48416;DHT22;34227;51.840;4.146;2022-10-16T09:26:16;24.90;79.90
48416;DHT22;34227;51.840;4.146;2022-10-16T09:28:43;24.90;78.90
48416;DHT22;34227;51.840;4.146;2022-10-16T09:31:15;25.00;78.60
48416;DHT22;34227;51.840;4.146;2022-10-16T09:33:42;24.90;79.00
48416;DHT22;34227;51.840;4.146;2022-10-16T09:36:08;24.80;80.00
48416;DHT22;34227;51.840;4.146;2022-10-16T09:38:35;24.70;79.60
48416;DHT22;34227;51.840;4.146;2022-10-16T09:43:45;24.40;82.20
48416;DHT22;34227;51.840;4.146;2022-10-16T09:48:57;24.00;84.30
48416;DHT22;34227;51.840;4.146;2022-10-16T09:51:30;23.80;84.10
48416;DHT22;34227;51.840;4.146;2022-10-16T09:53:57;23.60;84.40
48416;DHT22;34227;51.840;4.146;2022-10-16T09:56:24;23.50;84.90
48416;DHT22;34227;51.840;4.146;2022-10-16T09:58:55;23.30;84.60
48416;DHT22;34227;51.840;4.146;2022-10-16T10:01:21;23.20;84.10
48416;DHT22;34227;51.840;4.146;2022-10-16T10:03:48;23.00;83.90
48416;DHT22;34227;51.840;4.146;2022-10-16T10:06:21;22.80;83.90
48416;DHT22;34227;51.840;4.146;2022-10-16T10:11:38;22.60;84.50
48416;DHT22;34227;51.840;4.146;2022-10-16T10:14:17;22.40;84.90
48416;DHT22;34227;51.840;4.146;2022-10-16T10:16:44;22.90;86.20
48416;DHT22;34227;51.840;4.146;2022-10-16T10:19:13;22.30;90.90
48416;DHT22;34227;51.840;4.146;2022-10-16T10:21:39;22.00;85.60
48416;DHT22;34227;51.840;4.146;2022-10-16T10:24:05;21.90;85.50
48416;DHT22;34227;51.840;4.146;2022-10-16T10:26:31;21.80;85.80
48416;DHT22;34227;51.840;4.146;2022-10-16T10:29:32;20.70;79.10
48416;DHT22;34227;51.840;4.146;2022-10-16T10:34:35;19.90;85.50
48416;DHT22;34227;51.840;4.146;2022-10-16T10:39:49;20.50;86.00
48416;DHT22;34227;51.840;4.146;2022-10-16T10:42:19;20.60;86.00
48416;DHT22;34227;51.840;4.146;2022-10-16T10:47:23;20.50;86.50
48416;DHT22;34227;51.840;4.146;2022-10-16T10:57:58;20.40;87.40
48416;DHT22;34227;51.840;4.146;2022-10-16T11:00:06;20.30;87.80
48416;DHT22;34227;51.840;4.146;2022-10-16T11:02:37;20.20;87.90
48416;DHT22;34227;51.840;4.146;2022-10-16T11:07:45;20.10;87.90
48416;DHT22;34227;51.840;4.146;2022-10-16T11:10:14;20.00;88.10
48416;DHT22;34227;51.840;4.146;2022-10-16T11:12:46;20.00;88.40
48416;DHT22;34227;51.840;4.146;2022-10-16T11:15:15;19.90;88.60
48416;DHT22;34227;51.840;4.146;2022-10-16T11:20:25;19.80;88.70
48416;DHT22;34227;51.840;4.146;2022-10-16T11:23:10;19.80;88.70
48416;DHT22;34227;51.840;4.146;2022-10-16T11:25:40;19.70;89.00
48416;DHT22;34227;51.840;4.146;2022-10-16T11:28:14;19.60;89.10
48416;DHT22;34227;51.840;4.146;2022-10-16T11:33:50;19.50;89.30
48416;DHT22;34227;51.840;4.146;2022-10-16T11:36:04;19.40;89.10
48416;DHT22;34227;51.840;4.146;2022-10-16T11:38:43;19.40;89.50
48416;DHT22;34227;51.840;4.146;2022-10-16T11:43:41;19.30;89.90
48416;DHT22;34227;51.840;4.146;2022-10-16T11:46:10;19.30;89.80
48416;DHT22;34227;51.840;4.146;2022-10-16T11:48:39;19.20;90.00
48416;DHT22;34227;51.840;4.146;2022-10-16T11:51:09;19.20;90.00
48416;DHT22;34227;51.840;4.146;2022-10-16T11:53:46;19.10;90.00
48416;DHT22;34227;51.840;4.146;2022-10-16T11:56:18;19.10;90.00
48416;DHT22;34227;51.840;4.146;2022-10-16T12:01:33;19.10;90.00
48416;DHT22;34227;51.840;4.146;2022-10-16T12:06:48;19.00;89.90
48416;DHT22;34227;51.840;4.146;2022-10-16T12:09:15;19.00;89.70
48416;DHT22;34227;51.840;4.146;2022-10-16T12:11:44;19.00;89.70
48416;DHT22;34227;51.840;4.146;2022-10-16T12:16:37;19.00;89.50
48416;DHT22;34227;51.840;4.146;2022-10-16T12:19:13;19.00;89.50
48416;DHT22;34227;51.840;4.146;2022-10-16T12:21:39;19.00;89.30
48416;DHT22;34227;51.840;4.146;2022-10-16T12:24:05;19.00;89.20
48416;DHT22;34227;51.840;4.146;2022-10-16T12:26:38;19.00;89.10
48416;DHT22;34227;51.840;4.146;2022-10-16T12:29:14;19.00;89.10
48416;DHT22;34227;51.840;4.146;2022-10-16T12:31:50;18.90;89.00
48416;DHT22;34227;51.840;4.146;2022-10-16T12:34:23;18.90;88.80
48416;DHT22;34227;51.840;4.146;2022-10-16T12:36:51;18.90;88.70
48416;DHT22;34227;51.840;4.146;2022-10-16T12:39:21;18.90;88.70
48416;DHT22;34227;51.840;4.146;2022-10-16T12:41:47;18.90;88.70
48416;DHT22;34227;51.840;4.146;2022-10-16T12:44:25;18.90;88.60
48416;DHT22;34227;51.840;4.146;2022-10-16T12:46:56;18.90;88.60
48416;DHT22;34227;51.840;4.146;2022-10-16T12:49:28;18.90;88.70
48416;DHT22;34227;51.840;4.146;2022-10-16T12:51:54;18.90;88.60
48416;DHT22;34227;51.840;4.146;2022-10-16T12:54:22;18.90;88.80
48416;DHT22;34227;51.840;4.146;2022-10-16T13:04:35;19.00;88.80
48416;DHT22;34227;51.840;4.146;2022-10-16T13:12:18;19.00;88.90
48416;DHT22;34227;51.840;4.146;2022-10-16T13:17:25;19.10;89.00
48416;DHT22;34227;51.840;4.146;2022-10-16T13:20:04;19.10;89.10
48416;DHT22;34227;51.840;4.146;2022-10-16T13:22:50;19.10;88.80
48416;DHT22;34227;51.840;4.146;2022-10-16T13:28:01;19.10;89.20
48416;DHT22;34227;51.840;4.146;2022-10-16T13:30:32;19.10;89.20
48416;DHT22;34227;51.840;4.146;2022-10-16T13:33:04;19.10;89.20
48416;DHT22;34227;51.840;4.146;2022-10-16T13:35:33;19.20;89.30
48416;DHT22;34227;51.840;4.146;2022-10-16T13:38:03;19.20;89.30
48416;DHT22;34227;51.840;4.146;2022-10-16T13:40:29;19.20;89.30
48416;DHT22;34227;51.840;4.146;2022-10-16T13:42:54;19.30;89.20
48416;DHT22;34227;51.840;4.146;2022-10-16T13:45:22;19.30;89.20
48416;DHT22;34227;51.840;4.146;2022-10-16T13:47:48;19.30;89.20
48416;DHT22;34227;51.840;4.146;2022-10-16T13:50:17;19.30;89.20
48416;DHT22;34227;51.840;4.146;2022-10-16T13:52:44;19.30;89.20
48416;DHT22;34227;51.840;4.146;2022-10-16T13:55:17;19.30;89.10
48416;DHT22;34227;51.840;4.146;2022-10-16T13:57:42;19.40;89.10
48416;DHT22;34227;51.840;4.146;2022-10-16T14:03:01;19.40;88.60
48416;DHT22;34227;51.840;4.146;2022-10-16T14:05:29;19.40;88.90
48416;DHT22;34227;51.840;4.146;2022-10-16T14:07:55;19.50;89.10
48416;DHT22;34227;51.840;4.146;2022-10-16T14:10:22;19.50;89.10
48416;DHT22;34227;51.840;4.146;2022-10-16T14:13:04;19.50;89.10
48416;DHT22;34227;51.840;4.146;2022-10-16T14:15:34;19.50;89.10
48416;DHT22;34227;51.840;4.146;2022-10-16T14:18:00;19.50;89.10
48416;DHT22;34227;51.840;4.146;2022-10-16T14:20:28;19.50;89.20
48416;DHT22;34227;51.840;4.146;2022-10-16T14:23:04;19.50;89.10
48416;DHT22;34227;51.840;4.146;2022-10-16T14:25:31;19.50;89.20
48416;DHT22;34227;51.840;4.146;2022-10-16T14:30:48;19.50;89.20
48416;DHT22;34227;51.840;4.146;2022-10-16T14:33:24;19.50;89.20
48416;DHT22;34227;51.840;4.146;2022-10-16T14:38:25;19.60;89.20
48416;DHT22;34227;51.840;4.146;2022-10-16T14:40:50;19.60;89.20
48416;DHT22;34227;51.840;4.146;2022-10-16T14:43:37;19.50;89.10
48416;DHT22;34227;51.840;4.146;2022-10-16T14:46:02;19.60;89.10
48416;DHT22;34227;51.840;4.146;2022-10-16T14:48:29;19.50;88.90
48416;DHT22;34227;51.840;4.146;2022-10-16T14:50:55;19.50;88.80
48416;DHT22;34227;51.840;4.146;2022-10-16T14:53:20;19.50;88.80
48416;DHT22;34227;51.840;4.146;2022-10-16T14:55:46;19.50;88.80
48416;DHT22;34227;51.840;4.146;2022-10-16T14:58:15;19.50;88.60
48416;DHT22;34227;51.840;4.146;2022-10-16T15:00:42;19.50;88.50
48416;DHT22;34227;51.840;4.146;2022-10-16T15:03:07;19.50;88.70
48416;DHT22;34227;51.840;4.146;2022-10-16T15:05:33;19.40;88.60
48416;DHT22;34227;51.840;4.146;2022-10-16T15:07:59;19.40;88.50
48416;DHT22;34227;51.840;4.146;2022-10-16T15:10:26;19.40;88.50
48416;DHT22;34227;51.840;4.146;2022-10-16T15:12:52;19.30;88.50
48416;DHT22;34227;51.840;4.146;2022-10-16T15:17:53;19.30;88.60
48416;DHT22;34227;51.840;4.146;2022-10-16T15:20:21;19.30;88.20
48416;DHT22;34227;51.840;4.146;2022-10-16T15:22:47;19.30;88.30
48416;DHT22;34227;51.840;4.146;2022-10-16T15:25:34;19.20;88.40
48416;DHT22;34227;51.840;4.146;2022-10-16T15:27:59;19.20;88.30
48416;DHT22;34227;51.840;4.146;2022-10-16T15:30:25;19.20;88.60
48416;DHT22;34227;51.840;4.146;2022-10-16T15:32:51;19.10;88.80
48416;DHT22;34227;51.840;4.146;2022-10-16T15:35:17;19.10;88.50
48416;DHT22;34227;51.840;4.146;2022-10-16T15:37:43;19.10;88.80
48416;DHT22;34227;51.840;4.146;2022-10-16T15:40:09;19.10;88.80
48416;DHT22;34227;51.840;4.146;2022-10-16T15:42:36;19.10;89.10
48416;DHT22;34227;51.840;4.146;2022-10-16T15:45:06;19.00;89.10
48416;DHT22;34227;51.840;4.146;2022-10-16T15:47:32;19.00;89.20
48416;DHT22;34227;51.840;4.146;2022-10-16T15:49:58;18.90;89.40
48416;DHT22;34227;51.840;4.146;2022-10-16T15:52:26;18.90;89.60
48416;DHT22;34227;51.840;4.146;2022-10-16T15:54:54;18.90;89.60
48416;DHT22;34227;51.840;4.146;2022-10-16T15:57:19;18.80;89.80
48416;DHT22;34227;51.840;4.146;2022-10-16T15:59:45;18.80;89.90
48416;DHT22;34227;51.840;4.146;2022-10-16T16:02:10;18.80;90.00
48416;DHT22;34227;51.840;4.146;2022-10-16T16:04:36;18.70;90.00
48416;DHT22;34227;51.840;4.146;2022-10-16T16:07:02;18.70;90.10
48416;DHT22;34227;51.840;4.146;2022-10-16T16:09:30;18.70;90.10
48416;DHT22;34227;51.840;4.146;2022-10-16T16:11:56;18.60;90.10
48416;DHT22;34227;51.840;4.146;2022-10-16T16:14:25;18.60;90.10
48416;DHT22;34227;51.840;4.146;2022-10-16T16:16:56;18.60;90.10
48416;DHT22;34227;51.840;4.146;2022-10-16T16:19:22;18.50;90.20
48416;DHT22;34227;51.840;4.146;2022-10-16T16:21:48;18.50;90.20
48416;DHT22;34227;51.840;4.146;2022-10-16T16:24:14;18.40;90.20
48416;DHT22;34227;51.840;4.146;2022-10-16T16:26:39;18.50;90.30
48416;DHT22;34227;51.840;4.146;2022-10-16T16:29:12;18.40;90.30
48416;DHT22;34227;51.840;4.146;2022-10-16T16:31:38;18.40;90.30
48416;DHT22;34227;51.840;4.146;2022-10-16T16:34:04;18.30;90.30
48416;DHT22;34227;51.840;4.146;2022-10-16T16:36:29;18.30;90.30
48416;DHT22;34227;51.840;4.146;2022-10-16T16:38:55;18.30;90.30
48416;DHT22;34227;51.840;4.146;2022-10-16T16:41:22;18.30;90.30
48416;DHT22;34227;51.840;4.146;2022-10-16T16:43:48;18.20;90.30
48416;DHT22;34227;51.840;4.146;2022-10-16T16:46:16;18.20;90.30
48416;DHT22;34227;51.840;4.146;2022-10-16T16:48:42;18.20;90.30
48416;DHT22;34227;51.840;4.146;2022-10-16T16:51:08;18.20;90.30
48416;DHT22;34227;51.840;4.146;2022-10-16T16:53:35;18.10;90.30
48416;DHT22;34227;51.840;4.146;2022-10-16T16:56:02;18.10;90.30
48416;DHT22;34227;51.840;4.146;2022-10-16T16:58:27;18.10;90.40
48416;DHT22;34227;51.840;4.146;2022-10-16T17:00:53;18.00;90.40
48416;DHT22;34227;51.840;4.146;2022-10-16T17:03:19;18.00;90.50
48416;DHT22;34227;51.840;4.146;2022-10-16T17:05:54;18.00;90.50
48416;DHT22;34227;51.840;4.146;2022-10-16T17:08:20;18.00;90.60
48416;DHT22;34227;51.840;4.146;2022-10-16T17:10:45;17.90;90.60
48416;DHT22;34227;51.840;4.146;2022-10-16T17:13:15;17.90;90.70
48416;DHT22;34227;51.840;4.146;2022-10-16T17:15:45;17.90;90.70
48416;DHT22;34227;51.840;4.146;2022-10-16T17:18:11;17.80;90.70